createdAt,value
2019-03-22T00:01:18.231Z,99593.32
2019-03-22T00:03:48.137Z,99600.78
2019-03-22T00:06:31.539Z,99598.16
2019-03-22T00:09:01.347Z,99596.13
2019-03-22T00:11:31.153Z,99592.66
2019-03-22T00:14:01.027Z,99594.91
2019-03-22T00:16:30.851Z,99595.72
2019-03-22T00:19:00.686Z,99586.57
2019-03-22T00:21:30.475Z,99584.69
2019-03-22T00:24:00.381Z,99584.69
2019-03-22T00:26:32.462Z,99579.88
2019-03-22T00:29:01.753Z,99576.65
2019-03-22T00:31:31.545Z,99581.14
2019-03-22T00:34:01.383Z,99581.94
2019-03-22T00:36:31.165Z,99575.80
2019-03-22T00:39:00.952Z,99574.20
2019-03-22T00:41:30.767Z,99579.09
2019-03-22T00:44:00.584Z,99572.43
2019-03-22T00:46:30.416Z,99571.12
2019-03-22T00:49:00.226Z,99574.08
2019-03-22T00:51:30.064Z,99570.03
2019-03-22T00:53:59.850Z,99574.95
2019-03-22T00:56:29.667Z,99571.75
2019-03-22T00:58:59.506Z,99561.16
2019-03-22T01:01:29.307Z,99562.72
2019-03-22T01:03:59.117Z,99555.98
2019-03-22T01:06:28.897Z,99562.07
2019-03-22T01:08:58.728Z,99554.95
2019-03-22T01:11:28.522Z,99553.11
2019-03-22T01:13:58.300Z,99546.34
2019-03-22T01:16:28.123Z,99552.90
2019-03-22T01:18:57.912Z,99550.33
2019-03-22T01:21:27.745Z,99547.72
2019-03-22T01:23:59.835Z,99549.59
2019-03-22T01:26:29.110Z,99553.17
2019-03-22T01:28:58.919Z,99551.53
2019-03-22T01:31:28.693Z,99547.72
2019-03-22T01:33:58.511Z,99548.84
2019-03-22T01:36:28.296Z,99548.04
2019-03-22T01:38:58.111Z,99545.66
2019-03-22T01:41:27.883Z,99545.96
2019-03-22T01:43:57.701Z,99543.23
2019-03-22T01:46:27.507Z,99545.50
2019-03-22T01:48:57.291Z,99542.81
2019-03-22T01:51:27.105Z,99537.95
2019-03-22T01:53:56.918Z,99542.63
2019-03-22T01:56:26.726Z,99547.30
2019-03-22T01:58:56.528Z,99537.83
2019-03-22T02:01:26.351Z,99537.57
2019-03-22T02:03:56.245Z,99538.97
2019-03-22T02:06:26.045Z,99547.96
2019-03-22T02:08:55.848Z,99547.70
2019-03-22T02:11:25.633Z,99548.24
2019-03-22T02:13:55.444Z,99547.47
2019-03-22T02:16:25.248Z,99550.71
2019-03-22T02:18:55.061Z,99539.35
2019-03-22T02:21:24.864Z,99544.22
2019-03-22T02:23:54.682Z,99539.92
2019-03-22T02:26:24.486Z,99539.92
2019-03-22T02:28:54.283Z,99535.33
2019-03-22T02:31:24.094Z,99532.38
2019-03-22T02:33:53.988Z,99530.23
2019-03-22T02:36:23.760Z,99522.08
2019-03-22T02:38:53.547Z,99526.41
2019-03-22T02:41:23.375Z,99524.78
2019-03-22T02:43:54.749Z,99525.33
2019-03-22T02:46:24.788Z,99522.08
2019-03-22T02:48:54.594Z,99523.19
2019-03-22T02:51:24.418Z,99519.41
2019-03-22T02:53:54.176Z,99525.05
2019-03-22T02:56:23.963Z,99524.25
2019-03-22T02:58:53.771Z,99521.57
2019-03-22T03:01:23.598Z,99519.41
2019-03-22T03:03:55.547Z,99521.57
2019-03-22T03:06:25.052Z,99523.19
2019-03-22T03:08:54.871Z,99520.23
2019-03-22T03:11:25.608Z,99522.93
2019-03-22T03:13:55.462Z,99521.30
2019-03-22T03:16:25.495Z,99526.43
2019-03-22T03:18:55.308Z,99528.86
2019-03-22T03:21:25.236Z,99525.64
2019-03-22T03:23:55.043Z,99535.31
2019-03-22T03:26:24.858Z,99522.39
2019-03-22T03:28:54.670Z,99519.92
2019-03-22T03:31:28.661Z,99530.45
2019-03-22T03:33:58.505Z,99534.80
2019-03-22T03:36:28.310Z,99536.16
2019-03-22T03:38:58.102Z,99536.16
2019-03-22T03:41:28.226Z,99531.31
2019-03-22T03:43:58.036Z,99529.95
2019-03-22T03:46:27.874Z,99533.44
2019-03-22T03:48:57.671Z,99531.84
2019-03-22T03:51:27.474Z,99538.05
2019-03-22T03:53:57.285Z,99532.33
2019-03-22T03:56:27.085Z,99543.67
2019-03-22T03:58:56.877Z,99550.70
2019-03-22T04:01:26.660Z,99543.67
2019-03-22T04:03:56.496Z,99539.30
2019-03-22T04:06:26.283Z,99539.03
2019-03-22T04:08:56.141Z,99532.03
2019-03-22T04:11:25.978Z,99539.34
2019-03-22T04:13:55.824Z,99528.80
2019-03-22T04:16:25.611Z,99532.88
2019-03-22T04:18:55.454Z,99536.95
2019-03-22T04:21:25.751Z,99536.71
2019-03-22T04:23:55.570Z,99537.77
2019-03-22T04:26:25.388Z,99537.52
2019-03-22T04:29:06.813Z,99537.53
2019-03-22T04:31:26.783Z,99539.95
2019-03-22T04:33:56.609Z,99543.18
2019-03-22T04:36:26.418Z,99541.84
2019-03-22T04:38:56.209Z,99543.41
2019-03-22T04:41:26.010Z,99543.67
2019-03-22T04:43:55.798Z,99534.50
2019-03-22T04:46:27.140Z,99534.95
2019-03-22T04:48:57.612Z,99541.19
2019-03-22T04:51:28.193Z,99541.48
2019-03-22T04:54:02.279Z,99543.90
2019-03-22T04:56:34.916Z,99534.94
2019-03-22T04:59:18.437Z,99533.86
2019-03-22T05:01:42.223Z,99538.16
2019-03-22T05:04:12.906Z,99543.00
2019-03-22T05:06:43.847Z,99550.81
2019-03-22T05:09:15.856Z,99550.83
2019-03-22T05:11:47.854Z,99550.70
2019-03-22T05:14:18.643Z,99555.02
2019-03-22T05:16:50.786Z,99550.23
2019-03-22T05:19:22.923Z,99548.86
2019-03-22T05:21:54.609Z,99537.27
2019-03-22T05:24:25.866Z,99545.30
2019-03-22T05:26:58.797Z,99544.52
2019-03-22T05:29:32.666Z,99549.69
2019-03-22T05:32:10.296Z,99550.23
2019-03-22T05:34:40.094Z,99550.73
2019-03-22T05:37:10.054Z,99546.64
2019-03-22T05:39:39.885Z,99545.13
2019-03-22T05:42:09.683Z,99547.81
2019-03-22T05:44:39.491Z,99555.91
2019-03-22T05:47:09.323Z,99552.14
2019-03-22T05:49:39.175Z,99555.36
2019-03-22T05:52:08.995Z,99550.80
2019-03-22T05:54:38.825Z,99549.93
2019-03-22T05:57:13.318Z,99546.75
2019-03-22T05:59:42.719Z,99543.00
2019-03-22T06:02:11.839Z,99543.03
2019-03-22T06:04:42.332Z,99542.53
2019-03-22T06:07:12.647Z,99548.25
2019-03-22T06:09:42.758Z,99550.70
2019-03-22T06:12:13.098Z,99552.34
2019-03-22T06:14:47.138Z,99562.07
2019-03-22T06:17:17.476Z,99565.61
2019-03-22T06:19:47.588Z,99569.13
2019-03-22T06:22:17.455Z,99577.23
2019-03-22T06:24:47.737Z,99575.09
2019-03-22T06:27:17.767Z,99575.36
2019-03-22T06:29:54.271Z,99583.19
2019-03-22T06:32:20.025Z,99587.52
2019-03-22T06:34:50.220Z,99586.98
2019-03-22T06:37:20.302Z,99585.38
2019-03-22T06:39:50.386Z,99591.30
2019-03-22T06:42:20.610Z,99586.43
2019-03-22T06:44:50.694Z,99589.69
2019-03-22T06:47:21.183Z,99587.25
2019-03-22T06:49:51.240Z,99593.19
2019-03-22T06:52:21.452Z,99592.64
2019-03-22T06:54:51.626Z,99588.02
2019-03-22T06:57:21.434Z,99594.20
2019-03-22T06:59:51.296Z,99598.25
2019-03-22T07:02:21.144Z,99599.56
2019-03-22T07:04:51.027Z,99599.50
2019-03-22T07:07:20.805Z,99591.53
2019-03-22T07:09:50.585Z,99590.08
2019-03-22T07:12:20.381Z,99588.66
2019-03-22T07:14:50.223Z,99591.48
2019-03-22T07:17:20.086Z,99586.70
2019-03-22T07:19:49.875Z,99589.15
2019-03-22T07:22:19.716Z,99583.72
2019-03-22T07:24:49.569Z,99582.25
2019-03-22T07:27:19.421Z,99592.41
2019-03-22T07:29:49.222Z,99594.69
2019-03-22T07:32:19.035Z,99594.84
2019-03-22T07:34:48.888Z,99597.45
2019-03-22T07:37:30.476Z,99601.43
2019-03-22T07:40:00.483Z,99604.13
2019-03-22T07:42:30.303Z,99608.73
2019-03-22T07:45:00.283Z,99601.30
2019-03-22T07:47:30.168Z,99597.98
2019-03-22T07:49:59.943Z,99592.22
2019-03-22T07:52:29.813Z,99591.86
2019-03-22T07:54:59.629Z,99596.92
2019-03-22T07:57:29.536Z,99592.66
2019-03-22T07:59:59.369Z,99601.44
2019-03-22T08:02:29.183Z,99593.72
2019-03-22T08:04:59.031Z,99595.39
2019-03-22T08:07:29.079Z,99591.06
2019-03-22T08:09:59.052Z,99578.78
2019-03-22T08:12:28.932Z,99580.56
2019-03-22T08:14:58.788Z,99574.42
2019-03-22T08:17:28.599Z,99581.30
2019-03-22T08:19:58.412Z,99583.60
2019-03-22T08:22:28.283Z,99579.89
2019-03-22T08:24:58.109Z,99576.98
2019-03-22T08:27:27.940Z,99583.88
2019-03-22T08:29:57.858Z,99578.77
2019-03-22T08:32:27.647Z,99578.56
2019-03-22T08:34:57.504Z,99573.05
2019-03-22T08:37:27.361Z,99573.15
2019-03-22T08:39:57.208Z,99571.05
2019-03-22T08:42:27.086Z,99573.63
2019-03-22T08:44:56.862Z,99581.02
2019-03-22T08:47:33.969Z,99574.89
2019-03-22T08:49:58.242Z,99571.28
2019-03-22T08:52:28.096Z,99574.22
2019-03-22T08:54:58.053Z,99577.82
2019-03-22T08:57:27.896Z,99571.55
2019-03-22T08:59:57.709Z,99575.39
2019-03-22T09:02:27.554Z,99572.70
2019-03-22T09:04:57.372Z,99567.45
2019-03-22T09:07:27.159Z,99569.08
2019-03-22T09:09:56.952Z,99568.45
2019-03-22T09:12:27.057Z,99567.61
2019-03-22T09:14:56.888Z,99564.63
2019-03-22T09:17:26.689Z,99553.07
2019-03-22T09:19:56.599Z,99559.98
2019-03-22T09:22:26.457Z,99558.09
2019-03-22T09:24:56.303Z,99554.59
2019-03-22T09:27:26.075Z,99554.02
2019-03-22T09:29:55.997Z,99545.86
2019-03-22T09:32:25.843Z,99540.88
2019-03-22T09:34:55.758Z,99544.52
2019-03-22T09:37:25.631Z,99538.67
2019-03-22T09:39:56.520Z,99541.29
2019-03-22T09:42:26.478Z,99534.67
2019-03-22T09:44:56.242Z,99533.04
2019-03-22T09:47:26.104Z,99532.97
2019-03-22T09:49:55.916Z,99531.64
2019-03-22T09:52:25.738Z,99532.67
2019-03-22T09:54:55.879Z,99530.91
2019-03-22T09:57:25.726Z,99523.61
2019-03-22T09:59:55.620Z,99517.42
2019-03-22T10:02:25.407Z,99515.77
2019-03-22T10:04:55.265Z,99516.66
2019-03-22T10:07:25.082Z,99518.90
2019-03-22T10:09:54.999Z,99504.70
2019-03-22T10:12:24.842Z,99500.25
2019-03-22T10:14:54.657Z,99502.47
2019-03-22T10:17:24.510Z,99498.73
2019-03-22T10:19:54.349Z,99497.97
2019-03-22T10:22:24.293Z,99502.02
2019-03-22T10:24:54.078Z,99499.59
2019-03-22T10:27:23.934Z,99504.80
2019-03-22T10:29:53.782Z,99494.62
2019-03-22T10:32:23.957Z,99491.67
2019-03-22T10:34:53.896Z,99492.02
2019-03-22T10:37:23.740Z,99493.11
2019-03-22T10:39:53.550Z,99482.50
2019-03-22T10:42:23.504Z,99478.14
2019-03-22T10:44:53.323Z,99481.89
2019-03-22T10:47:23.169Z,99478.72
2019-03-22T10:49:53.103Z,99468.07
2019-03-22T10:52:22.969Z,99462.58
2019-03-22T10:54:52.914Z,99462.69
2019-03-22T10:57:23.119Z,99467.79
2019-03-22T10:59:53.059Z,99470.91
2019-03-22T11:02:27.512Z,99474.59
2019-03-22T11:04:57.330Z,99463.25
2019-03-22T11:07:27.113Z,99458.31
2019-03-22T11:09:56.906Z,99457.45
2019-03-22T11:12:26.722Z,99456.62
2019-03-22T11:14:56.597Z,99446.13
2019-03-22T11:17:26.445Z,99446.41
2019-03-22T11:19:57.536Z,99447.52
2019-03-22T11:22:27.469Z,99450.14
2019-03-22T11:24:57.309Z,99449.50
2019-03-22T11:27:27.162Z,99447.55
2019-03-22T11:29:56.985Z,99444.20
2019-03-22T11:32:26.855Z,99441.75
2019-03-22T11:34:56.704Z,99437.25
2019-03-22T11:37:26.499Z,99434.84
2019-03-22T11:39:56.327Z,99428.42
2019-03-22T11:42:26.147Z,99428.77
2019-03-22T11:44:56.081Z,99424.55
2019-03-22T11:47:25.875Z,99421.26
2019-03-22T11:49:55.687Z,99414.48
2019-03-22T11:52:25.469Z,99414.30
2019-03-22T11:54:55.273Z,99409.06
2019-03-22T11:57:25.084Z,99404.81
2019-03-22T11:59:55.018Z,99408.55
2019-03-22T12:02:24.870Z,99402.75
2019-03-22T12:04:54.663Z,99395.94
2019-03-22T12:07:24.473Z,99394.61
2019-03-22T12:09:54.271Z,99392.79
2019-03-22T12:12:24.107Z,99380.08
2019-03-22T12:14:53.933Z,99378.27
2019-03-22T12:17:23.728Z,99375.16
2019-03-22T12:19:53.638Z,99367.91
2019-03-22T12:22:23.421Z,99366.78
2019-03-22T12:24:53.267Z,99371.48
2019-03-22T12:27:23.044Z,99361.48
2019-03-22T12:29:53.467Z,99363.16
2019-03-22T12:32:31.936Z,99360.36
2019-03-22T12:34:54.812Z,99352.87
2019-03-22T12:37:24.638Z,99349.11
2019-03-22T12:39:54.455Z,99345.44
2019-03-22T12:42:24.265Z,99357.16
2019-03-22T12:44:54.117Z,99342.22
2019-03-22T12:47:24.401Z,99334.82
2019-03-22T12:49:54.255Z,99331.90
2019-03-22T12:52:24.111Z,99336.16
2019-03-22T12:54:53.888Z,99332.91
2019-03-22T12:57:23.692Z,99343.70
2019-03-22T12:59:53.534Z,99334.97
2019-03-22T13:02:23.426Z,99327.02
2019-03-22T13:04:53.266Z,99329.38
2019-03-22T13:07:23.077Z,99323.82
2019-03-22T13:09:52.928Z,99316.11
2019-03-22T13:12:22.826Z,99308.63
2019-03-22T13:14:52.662Z,99309.91
2019-03-22T13:17:22.598Z,99303.59
2019-03-22T13:19:52.413Z,99297.19
2019-03-22T13:22:22.379Z,99297.70
2019-03-22T13:24:52.183Z,99291.75
2019-03-22T13:27:22.015Z,99289.98
2019-03-22T13:29:51.804Z,99289.81
2019-03-22T13:32:23.582Z,99281.54
2019-03-22T13:34:53.411Z,99279.55
2019-03-22T13:37:23.169Z,99276.06
2019-03-22T13:39:53.022Z,99276.42
2019-03-22T13:42:22.835Z,99275.48
2019-03-22T13:44:52.667Z,99268.34
2019-03-22T13:47:22.478Z,99265.54
2019-03-22T13:49:52.333Z,99267.52
2019-03-22T13:52:22.136Z,99265.74
2019-03-22T13:54:51.996Z,99264.36
2019-03-22T13:57:21.855Z,99258.30
2019-03-22T13:59:51.695Z,99256.38
2019-03-22T14:02:22.998Z,99251.97
2019-03-22T14:04:52.930Z,99259.38
2019-03-22T14:07:22.744Z,99247.77
2019-03-22T14:09:52.545Z,99252.62
2019-03-22T14:12:22.597Z,99252.62
2019-03-22T14:14:52.406Z,99240.61
2019-03-22T14:17:22.524Z,99245.16
2019-03-22T14:19:52.350Z,99251.70
2019-03-22T14:22:22.134Z,99241.49
2019-03-22T14:24:51.968Z,99242.67
2019-03-22T14:27:23.746Z,99246.27
2019-03-22T14:29:53.714Z,99245.13
2019-03-22T14:32:23.672Z,99233.41
2019-03-22T14:34:53.505Z,99234.11
2019-03-22T14:37:23.317Z,99230.13
2019-03-22T14:39:53.120Z,99222.55
2019-03-22T14:42:23.027Z,99232.41
2019-03-22T14:44:52.833Z,99225.09
2019-03-22T14:47:22.728Z,99222.27
2019-03-22T14:49:52.519Z,99216.92
2019-03-22T14:52:22.376Z,99211.96
2019-03-22T14:54:52.251Z,99217.84
2019-03-22T14:57:22.108Z,99212.34
2019-03-22T14:59:58.885Z,99212.34
2019-03-22T15:02:23.473Z,99202.23
2019-03-22T15:04:53.313Z,99189.68
2019-03-22T15:07:23.151Z,99198.97
2019-03-22T15:09:53.033Z,99202.91
2019-03-22T15:12:22.910Z,99200.42
2019-03-22T15:15:23.977Z,99194.60
2019-03-22T15:18:18.463Z,99191.99
2019-03-22T15:21:05.638Z,99186.50
2019-03-22T15:24:03.181Z,99195.66
2019-03-22T15:26:45.402Z,99193.72
2019-03-22T15:29:40.092Z,99185.36
2019-03-22T15:32:27.584Z,99188.34
2019-03-22T15:35:16.195Z,99195.91
2019-03-22T15:38:03.632Z,99192.41
2019-03-22T15:40:33.429Z,99189.00
2019-03-22T15:43:03.268Z,99189.68
2019-03-22T15:45:33.135Z,99186.53
2019-03-22T15:48:02.978Z,99187.02
2019-03-22T15:50:32.772Z,99185.66
2019-03-22T15:53:02.610Z,99187.45
2019-03-22T15:55:32.439Z,99188.36
2019-03-22T15:58:02.329Z,99181.56
2019-03-22T16:00:32.247Z,99179.80
2019-03-22T16:03:02.053Z,99181.56
2019-03-22T16:05:31.927Z,99183.88
2019-03-22T16:08:01.720Z,99177.23
2019-03-22T16:10:31.547Z,99179.16
2019-03-22T16:13:01.344Z,99168.79
2019-03-22T16:15:31.173Z,99180.70
2019-03-22T16:18:00.983Z,99172.66
2019-03-22T16:20:30.774Z,99171.30
2019-03-22T16:23:00.607Z,99178.69
2019-03-22T16:25:30.447Z,99167.70
2019-03-22T16:28:00.295Z,99174.02
2019-03-22T16:30:32.199Z,99169.77
2019-03-22T16:33:02.044Z,99177.59
2019-03-22T16:35:31.881Z,99177.59
2019-03-22T16:38:01.693Z,99169.13
2019-03-22T16:40:31.523Z,99162.80
2019-03-22T16:43:01.305Z,99162.80
2019-03-22T16:45:39.339Z,99164.02
2019-03-22T16:48:09.513Z,99169.87
2019-03-22T16:50:39.550Z,99172.21
2019-03-22T16:53:09.388Z,99171.18
2019-03-22T16:55:39.233Z,99170.97
2019-03-22T16:58:09.040Z,99174.29
2019-03-22T17:00:39.259Z,99164.69
2019-03-22T17:03:09.106Z,99164.69
2019-03-22T17:05:39.050Z,99165.33
2019-03-22T17:08:08.865Z,99169.48
2019-03-22T17:10:38.673Z,99170.61
2019-03-22T17:13:08.598Z,99175.25
2019-03-22T17:15:38.390Z,99174.08
2019-03-22T17:18:08.244Z,99169.17
2019-03-22T17:20:38.094Z,99167.65
2019-03-22T17:23:07.938Z,99167.77
2019-03-22T17:25:37.733Z,99166.05
2019-03-22T17:28:07.531Z,99169.62
2019-03-22T17:30:37.384Z,99167.12
2019-03-22T17:33:08.050Z,99170.63
2019-03-22T17:35:37.915Z,99174.02
2019-03-22T17:38:07.764Z,99169.66
2019-03-22T17:40:37.620Z,99170.03
2019-03-22T17:43:07.411Z,99172.70
2019-03-22T17:45:37.276Z,99169.91
2019-03-22T17:48:07.945Z,99177.61
2019-03-22T17:50:37.912Z,99167.59
2019-03-22T17:53:07.870Z,99173.98
2019-03-22T17:55:38.537Z,99169.13
2019-03-22T17:58:08.717Z,99173.80
2019-03-22T18:00:39.333Z,99172.39
2019-03-22T18:03:09.763Z,99170.45
2019-03-22T18:05:39.893Z,99174.66
2019-03-22T18:08:10.291Z,99173.36
2019-03-22T18:10:40.284Z,99172.08
2019-03-22T18:13:10.150Z,99177.73
2019-03-22T18:15:40.118Z,99180.63
2019-03-22T18:18:10.021Z,99178.95
2019-03-22T18:20:41.231Z,99186.85
2019-03-22T18:23:11.351Z,99181.12
2019-03-22T18:25:41.427Z,99181.62
2019-03-22T18:28:11.512Z,99181.76
2019-03-22T18:30:41.448Z,99187.93
2019-03-22T18:33:21.673Z,99186.78
2019-03-22T18:35:52.396Z,99183.42
2019-03-22T18:38:22.660Z,99183.42
2019-03-22T18:40:52.485Z,99182.37
2019-03-22T18:43:22.922Z,99185.69
2019-03-22T18:45:52.814Z,99188.44
2019-03-22T18:48:22.702Z,99188.13
2019-03-22T18:50:56.657Z,99195.86
2019-03-22T18:53:24.278Z,99187.80
2019-03-22T18:55:55.411Z,99186.37
2019-03-22T18:58:26.506Z,99191.37
2019-03-22T19:01:49.615Z,99196.23
2019-03-22T19:04:20.444Z,99196.58
2019-03-22T19:06:51.682Z,99198.74
2019-03-22T19:09:23.494Z,99201.20
2019-03-22T19:11:55.055Z,99194.10
2019-03-22T19:14:37.696Z,99195.54
2019-03-22T19:17:09.171Z,99197.38
2019-03-22T19:19:40.653Z,99200.13
2019-03-22T19:22:13.490Z,99190.43
2019-03-22T19:24:44.995Z,99198.34
2019-03-22T19:27:17.523Z,99190.97
2019-03-22T19:29:48.862Z,99199.72
2019-03-22T19:32:19.978Z,99200.76
2019-03-22T19:34:54.283Z,99194.81
2019-03-22T19:37:21.500Z,99198.14
2019-03-22T19:39:51.449Z,99197.72
2019-03-22T19:42:21.152Z,99196.34
2019-03-22T19:44:50.987Z,99199.66
2019-03-22T19:47:21.208Z,99195.45
2019-03-22T19:49:51.025Z,99198.42
2019-03-22T19:52:20.811Z,99204.39
2019-03-22T19:54:50.625Z,99197.08
2019-03-22T19:57:20.431Z,99198.88
2019-03-22T19:59:50.297Z,99201.64
2019-03-22T20:02:20.167Z,99206.34
2019-03-22T20:04:50.114Z,99197.30
2019-03-22T20:07:26.773Z,99200.49
2019-03-22T20:09:51.743Z,99203.23
2019-03-22T20:12:21.610Z,99201.74
2019-03-22T20:14:51.404Z,99203.38
2019-03-22T20:17:21.226Z,99196.49
2019-03-22T20:19:51.046Z,99198.77
2019-03-22T20:22:21.894Z,99198.70
2019-03-22T20:24:51.876Z,99201.11
2019-03-22T20:27:21.774Z,99200.81
2019-03-22T20:29:51.617Z,99202.35
2019-03-22T20:32:21.731Z,99197.11
2019-03-22T20:34:51.886Z,99196.83
2019-03-22T20:37:23.939Z,99197.70
2019-03-22T20:39:53.823Z,99196.28
2019-03-22T20:42:23.756Z,99201.33
2019-03-22T20:44:53.728Z,99198.11
2019-03-22T20:47:23.586Z,99199.49
2019-03-22T20:49:53.497Z,99201.98
2019-03-22T20:52:23.332Z,99202.04
2019-03-22T20:54:53.267Z,99203.08
2019-03-22T20:57:23.106Z,99204.77
2019-03-22T20:59:52.920Z,99203.16
2019-03-22T21:02:22.859Z,99198.38
2019-03-22T21:04:52.926Z,99195.41
2019-03-22T21:07:22.814Z,99196.67
2019-03-22T21:09:52.645Z,99196.16
2019-03-22T21:12:22.614Z,99192.87
2019-03-22T21:14:52.435Z,99193.98
2019-03-22T21:17:22.317Z,99202.22
2019-03-22T21:19:52.231Z,99207.98
2019-03-22T21:22:22.051Z,99202.86
2019-03-22T21:24:51.949Z,99204.61
2019-03-22T21:27:21.917Z,99204.55
2019-03-22T21:29:52.278Z,99202.83
2019-03-22T21:32:22.394Z,99194.43
2019-03-22T21:34:52.361Z,99194.47
2019-03-22T21:37:22.268Z,99191.09
2019-03-22T21:39:52.456Z,99193.18
2019-03-22T21:42:22.423Z,99194.98
2019-03-22T21:44:52.646Z,99190.77
2019-03-22T21:47:22.594Z,99190.64
2019-03-22T21:49:52.401Z,99191.17
2019-03-22T21:52:22.329Z,99188.95
2019-03-22T21:54:52.354Z,99189.33
2019-03-22T21:57:22.223Z,99192.37
2019-03-22T21:59:52.653Z,99190.72
2019-03-22T22:02:24.633Z,99196.50
2019-03-22T22:04:54.588Z,99198.03
2019-03-22T22:07:24.518Z,99197.00
2019-03-22T22:09:54.420Z,99199.54
2019-03-22T22:12:24.359Z,99196.45
2019-03-22T22:14:54.227Z,99196.08
2019-03-22T22:17:24.996Z,99193.83
2019-03-22T22:19:54.924Z,99196.81
2019-03-22T22:22:24.775Z,99194.37
2019-03-22T22:24:54.611Z,99193.67
2019-03-22T22:27:24.444Z,99190.67
2019-03-22T22:29:54.278Z,99186.36
2019-03-22T22:32:24.320Z,99192.17
2019-03-22T22:34:54.326Z,99199.31
2019-03-22T22:37:24.278Z,99194.77
2019-03-22T22:39:54.230Z,99187.84
2019-03-22T22:42:24.032Z,99189.91
2019-03-22T22:44:53.873Z,99186.48
2019-03-22T22:47:23.733Z,99192.37
2019-03-22T22:49:53.610Z,99182.66
2019-03-22T22:52:23.536Z,99180.61
2019-03-22T22:54:53.438Z,99178.87
2019-03-22T22:57:23.275Z,99179.81
2019-03-22T22:59:53.098Z,99181.23
2019-03-22T23:02:23.033Z,99179.27
2019-03-22T23:04:52.953Z,99178.02
2019-03-22T23:07:22.768Z,99173.09
2019-03-22T23:09:52.606Z,99177.57
2019-03-22T23:12:22.976Z,99176.72
2019-03-22T23:14:52.811Z,99174.54
2019-03-22T23:17:22.716Z,99172.14
2019-03-22T23:19:52.828Z,99173.17
2019-03-22T23:22:24.511Z,99176.45
2019-03-22T23:24:54.434Z,99177.56
2019-03-22T23:27:24.301Z,99174.03
2019-03-22T23:29:54.103Z,99182.14
2019-03-22T23:32:24.038Z,99183.72
2019-03-22T23:34:58.919Z,99183.07
2019-03-22T23:37:25.445Z,99189.26
2019-03-22T23:39:55.307Z,99180.69
2019-03-22T23:42:25.128Z,99174.91
2019-03-22T23:44:55.003Z,99182.58
2019-03-22T23:47:24.895Z,99188.03
2019-03-22T23:49:54.802Z,99189.88
2019-03-22T23:52:24.809Z,99192.48
2019-03-22T23:54:54.711Z,99188.77
2019-03-22T23:57:24.673Z,99190.14
2019-03-22T23:59:54.554Z,99185.06
